Terminal Aerodrome Forecast
Issued by NWS Shreveport, LA

Home | Current Version | Previous Version | Text Only | Print | Product List | Glossary On
Versions: 1 2 3 4 5 6 7 8 9 10 11 12 13
000
FTUS44 KSHV 280500
TAFELD
TAF
KELD 280526Z 2806/2906 VRB04KT P6SM BKN250
     FM280800 25003KT P6SM VCSH SCT060 BKN150 BKN250
     FM281500 36004KT P6SM SCT060 SCT250
     FM290000 35005KT P6SM SCT250=

USA.gov is the U.S. government's official web portal to all federal, state and local government web resources and services.